Airfield :
LOGIN :

Register | Disclaimer

   EN    FR    IT 

 










Legend :    VFR   Marginal VFR   IFR   Intensive IFR   Very Intensive IFR
Visi :
Ceiling :
>= 8 km
>= 3000ft
5 to 8 km
1000 to 3000 ft
1500m to 5 km
500 to 1000 ft
800 to 1500m
200 to 500 ft
< 800m
< 200 ft
Symbols :   Thunderstorms  Fog  Heavy snow  Heavy precipitations  Wind > 20 kt
SIGMETs :     Misc.  Thunderstorms  Icing  Turbulence  Mountain Waves  Volcanic Ashes







- Airport Elevation : 257 ft
- IATA code : MAN
- Download approach charts


EGCC - Manchester

CURRENT METAR :
  • 211050Z AUTO 27006KT 9999 BKN013 OVC024 12/09 Q1033 BECMG SCT013

EXPIRED METARs :
  • 211020Z AUTO 24007KT 9999 BKN014 OVC023 12/09 Q1033 BECMG SCT014
  • 210950Z AUTO 24006KT 9999 OVC025 11/09 Q1033 NOSIG
  • 210920Z AUTO 24009KT 9999 FEW016 OVC026 11/09 Q1032 NOSIG
  • 210850Z AUTO 22005KT 9999 OVC026 11/09 Q1032 NOSIG
  • 210820Z AUTO 21006KT 190V250 9999 OVC026 11/09 Q1032 NOSIG

TAF TAF EGCC
Valid from the 21 at 12:00 until the 22 at 18:00 UTC


211059Z 2112/2218 22009KT 9999 BKN013
BECMG 2112/2115 SCT025
TEMPO 2202/2210 9000 BKN010
ATIS : +44 161 499 2324
No reported NOTAMs for that airfield.



MET'MAP, your aeronautical weather chart ! - Copyright ORBIFLY December 2007 - Disclaimer

ORBIFLY MET'MAP TEAM :

Programming & Development : Alexandra Zaïnal
Concept & Development : Baudouin d'Aumeries
Co-Development & Prog : Marc-Olivier Méhu
Technical & hardware support : Manuel Goepfert

Contact : metmap@orbifly.com




SOURCES & CREDITS :

   NOAA